Time;durP1;ratioP1;P1;durP2;ratioP2;P2;SDS_P1;SDS_P2;PMS_P1;PMS_P2;Temp;Humidity;BMP_temperature;BMP_pressure;BME280_temperature;BME280_humidity;BME280_pressure;Samples;Min_cycle;Max_cycle;Signal;HPM_P1;HPM_P2
2023/06/15 00:00:56;;;;;;;1.08;0.90;;;16.50;42.00;;;;;;4952377;28;20046;-70
2023/06/15 00:03:23;;;;;;;0.85;0.80;;;16.50;43.60;;;;;;4948406;29;20134;-70
2023/06/15 00:05:50;;;;;;;1.85;0.68;;;16.50;46.70;;;;;;4957292;28;20051;-70
2023/06/15 00:08:16;;;;;;;0.70;0.70;;;16.40;47.30;;;;;;4950022;28;20488;-69
2023/06/15 00:10:43;;;;;;;1.45;0.95;;;16.40;48.00;;;;;;4953000;28;20061;-69
2023/06/15 00:13:09;;;;;;;1.08;0.88;;;16.40;49.30;;;;;;4936040;28;20339;-70
2023/06/15 00:15:36;;;;;;;4.50;1.00;;;16.40;49.60;;;;;;4953398;28;20055;-70
2023/06/15 00:18:03;;;;;;;1.55;1.05;;;16.30;50.40;;;;;;4952253;28;20059;-70
2023/06/15 00:20:29;;;;;;;1.63;0.90;;;16.30;51.50;;;;;;4951829;28;20047;-70
2023/06/15 00:22:58;;;;;;;0.82;0.80;;;16.30;53.40;;;;;;4937101;28;20051;-70
2023/06/15 00:25:24;;;;;;;1.83;0.93;;;16.30;57.10;;;;;;4951625;28;20117;-70
2023/06/15 00:27:51;;;;;;;1.42;0.65;;;16.30;60.10;;;;;;4953374;28;20130;-70
2023/06/15 00:30:18;;;;;;;1.55;0.98;;;16.30;62.70;;;;;;4935496;28;20050;-70
2023/06/15 00:32:45;;;;;;;1.35;0.93;;;16.20;64.40;;;;;;4953323;28;20446;-70
2023/06/15 00:35:11;;;;;;;0.80;0.80;;;16.20;66.70;;;;;;4969150;28;20042;-69
2023/06/15 00:37:37;;;;;;;3.20;1.08;;;16.20;67.40;;;;;;4951849;28;20130;-70
2023/06/15 00:40:06;;;;;;;1.73;1.05;;;16.20;67.30;;;;;;4969100;28;20505;-70
2023/06/15 00:42:32;;;;;;;1.27;0.93;;;16.20;68.40;;;;;;4951623;28;20387;-71
2023/06/15 00:44:59;;;;;;;0.80;0.80;;;16.10;70.70;;;;;;4952118;28;20050;-70
2023/06/15 00:47:25;;;;;;;1.30;0.80;;;16.10;72.30;;;;;;4932374;29;20490;-69
2023/06/15 00:49:58;;;;;;;1.20;1.10;;;16.10;74.60;;;;;;4945123;28;20047;-70
2023/06/15 00:52:25;;;;;;;1.55;0.98;;;16.00;75.90;;;;;;4951503;28;20055;-69
2023/06/15 00:54:51;;;;;;;9.95;1.10;;;16.00;76.20;;;;;;4936248;28;20818;-70
2023/06/15 00:57:18;;;;;;;0.95;0.90;;;16.00;77.10;;;;;;4969441;28;20053;-70
2023/06/15 00:59:45;;;;;;;0.82;0.82;;;16.00;77.90;;;;;;4950819;28;20139;-69
2023/06/15 01:02:12;;;;;;;1.30;0.80;;;15.90;79.80;;;;;;4952241;28;20054;-70
2023/06/15 01:04:40;;;;;;;1.27;0.90;;;15.90;80.70;;;;;;4950770;28;20082;-69
2023/06/15 01:07:10;;;;;;;1.88;0.95;;;15.90;82.30;;;;;;4952090;28;20046;-70
2023/06/15 01:09:41;;;;;;;1.42;1.00;;;15.80;83.50;;;;;;4950998;28;20102;-70
2023/06/15 01:12:13;;;;;;;1.65;1.17;;;15.80;84.80;;;;;;4951670;28;20141;-70
2023/06/15 01:14:42;;;;;;;2.45;1.00;;;15.80;85.90;;;;;;4951540;28;20493;-70
2023/06/15 01:17:15;;;;;;;1.48;1.00;;;15.80;87.80;;;;;;4950816;28;20109;-70
2023/06/15 01:19:58;;;;;;;1.30;0.93;;;15.70;89.80;;;;;;4952078;28;20078;-70
2023/06/15 01:22:49;;;;;;;2.35;0.85;;;15.70;90.70;;;;;;4967973;28;20059;-71
2023/06/15 01:25:45;;;;;;;2.05;1.20;;;15.60;90.80;;;;;;4923997;28;20110;-70
2023/06/15 01:28:15;;;;;;;1.73;1.02;;;15.50;91.20;;;;;;4952141;28;20103;-70
2023/06/15 01:30:43;;;;;;;;;;;15.50;91.50;;;;;;4935481;28;20508;-70
2023/06/15 01:33:11;;;;;;;0.90;0.90;;;15.50;91.80;;;;;;4968530;28;20786;-70
2023/06/15 01:35:38;;;;;;;1.52;1.00;;;15.40;91.90;;;;;;4951038;28;20054;-70
2023/06/15 01:38:05;;;;;;;1.35;1.20;;;15.40;92.60;;;;;;4951294;28;20055;-70
2023/06/15 01:40:34;;;;;;;1.15;1.00;;;15.40;93.20;;;;;;4951761;28;20091;-70
2023/06/15 01:43:01;;;;;;;;;;;15.40;93.30;;;;;;4950727;28;20076;-70
2023/06/15 01:45:29;;;;;;;1.13;1.08;;;15.30;93.90;;;;;;4966883;28;19926;-70
2023/06/15 01:47:56;;;;;;;3.00;1.20;;;15.40;94.00;;;;;;4950411;28;20078;-70
2023/06/15 01:50:24;;;;;;;1.00;1.00;;;15.30;94.60;;;;;;4935439;28;20141;-70
2023/06/15 01:52:50;;;;;;;1.30;1.20;;;15.30;94.60;;;;;;4950741;28;20061;-70
2023/06/15 01:55:17;;;;;;;1.48;1.00;;;15.30;94.30;;;;;;4951035;28;20112;-70
2023/06/15 01:57:43;;;;;;;1.80;1.30;;;15.30;94.60;;;;;;4951319;28;20421;-70
2023/06/15 02:00:11;;;;;;;2.08;1.85;;;15.30;95.00;;;;;;4950123;28;20102;-70
2023/06/15 02:02:38;;;;;;;1.25;1.23;;;15.30;94.80;;;;;;4951667;28;20085;-70
2023/06/15 02:05:08;;;;;;;1.50;1.40;;;15.20;94.70;;;;;;4949937;28;20057;-70
2023/06/15 02:07:34;;;;;;;1.25;1.20;;;15.20;94.90;;;;;;4951669;28;20130;-70
2023/06/15 02:10:01;;;;;;;1.00;1.00;;;15.20;94.50;;;;;;4967222;28;20051;-70
2023/06/15 02:12:27;;;;;;;1.10;1.08;;;15.20;94.60;;;;;;4950695;28;20101;-70
2023/06/15 02:14:54;;;;;;;2.47;1.45;;;15.20;94.80;;;;;;4951147;28;20062;-70
2023/06/15 02:17:20;;;;;;;1.20;1.15;;;15.20;95.10;;;;;;4949238;28;20042;-70
2023/06/15 02:19:47;;;;;;;1.65;1.30;;;15.20;95.10;;;;;;4968660;28;20137;-70
2023/06/15 02:22:17;;;;;;;1.85;1.00;;;15.10;95.20;;;;;;4966514;28;20122;-70
2023/06/15 02:24:44;;;;;;;1.63;0.98;;;15.10;95.10;;;;;;4951176;28;20054;-70
2023/06/15 02:27:10;;;;;;;1.38;1.08;;;14.90;95.40;;;;;;4949375;28;20086;-70
2023/06/15 02:29:36;;;;;;;0.80;0.80;;;14.90;96.10;;;;;;4951337;28;20101;-70
2023/06/15 02:32:03;;;;;;;1.15;1.00;;;14.80;96.60;;;;;;4952270;28;20050;-70
2023/06/15 02:34:30;;;;;;;1.42;1.05;;;14.70;96.60;;;;;;4938111;28;20058;-70
2023/06/15 02:36:58;;;;;;;1.80;1.20;;;14.70;96.70;;;;;;4955216;28;20057;-70
2023/06/15 02:39:24;;;;;;;0.80;0.80;;;14.60;97.10;;;;;;4953539;28;20405;-70
2023/06/15 02:41:51;;;;;;;2.58;1.30;;;14.50;97.80;;;;;;4939167;28;20476;-70
2023/06/15 02:44:17;;;;;;;1.63;1.25;;;14.40;98.90;;;;;;4953044;28;20055;-70
2023/06/15 02:46:44;;;;;;;1.08;0.80;;;14.30;98.90;;;;;;4972114;28;20047;-70
2023/06/15 02:49:11;;;;;;;1.25;0.90;;;14.30;99.80;;;;;;4953993;28;20058;-70
2023/06/15 02:51:37;;;;;;;0.90;0.90;;;14.30;99.90;;;;;;4953175;28;20055;-70
2023/06/15 02:54:07;;;;;;;1.10;1.10;;;14.30;99.90;;;;;;4954941;28;20050;-70
2023/06/15 02:56:36;;;;;;;0.80;0.80;;;14.30;99.90;;;;;;4937283;28;20913;-70
2023/06/15 02:59:02;;;;;;;1.85;1.15;;;14.30;99.90;;;;;;4957762;28;20050;-70
2023/06/15 03:01:38;;;;;;;1.70;1.30;;;14.20;99.90;;;;;;4952988;28;20134;-70
2023/06/15 03:04:09;;;;;;;2.15;1.00;;;14.20;99.90;;;;;;4939693;28;20051;-70
2023/06/15 03:06:37;;;;;;;3.75;1.27;;;14.20;99.90;;;;;;4970763;28;20116;-70
2023/06/15 03:09:06;;;;;;;1.67;1.10;;;14.20;99.90;;;;;;4953823;28;20078;-70
2023/06/15 03:11:33;;;;;;;2.17;1.00;;;14.10;99.90;;;;;;4970333;28;20117;-70
2023/06/15 03:14:00;;;;;;;1.23;1.00;;;14.10;99.90;;;;;;4953259;28;20375;-70
2023/06/15 03:16:26;;;;;;;3.63;0.90;;;14.10;99.90;;;;;;4953571;28;20051;-70
2023/06/15 03:18:53;;;;;;;0.95;0.95;;;14.00;99.90;;;;;;4953145;28;20059;-70
2023/06/15 03:21:22;;;;;;;0.90;0.80;;;14.00;99.90;;;;;;4938103;28;20046;-70
2023/06/15 03:23:50;;;;;;;;;;;14.00;99.90;;;;;;4952965;28;20378;-70
2023/06/15 03:26:16;;;;;;;1.25;1.10;;;13.90;99.90;;;;;;4953527;28;19984;-70
2023/06/15 03:28:43;;;;;;;1.33;1.10;;;13.90;99.90;;;;;;4954280;28;20066;-70
2023/06/15 03:31:10;;;;;;;0.90;0.88;;;13.90;99.90;;;;;;4953338;28;20066;-70
2023/06/15 03:33:37;;;;;;;1.63;1.13;;;13.80;99.90;;;;;;4957627;28;20059;-70
2023/06/15 03:36:03;;;;;;;1.20;0.95;;;13.80;99.90;;;;;;4968641;28;20054;-70
2023/06/15 03:38:30;;;;;;;2.78;1.20;;;13.90;99.90;;;;;;4953775;28;20509;-70
2023/06/15 03:40:56;;;;;;;1.52;1.40;;;13.90;99.90;;;;;;4953261;28;20050;-70
2023/06/15 03:43:23;;;;;;;0.98;0.98;;;13.90;99.90;;;;;;4970277;28;20115;-70
2023/06/15 03:45:49;;;;;;;3.03;1.30;;;14.00;99.90;;;;;;4937896;28;20050;-70
2023/06/15 03:48:16;;;;;;;1.17;1.13;;;14.00;99.90;;;;;;4952559;28;20069;-70
2023/06/15 03:50:43;;;;;;;1.17;0.93;;;14.00;99.90;;;;;;4954260;28;20050;-70
2023/06/15 03:53:11;;;;;;;1.13;1.10;;;14.10;99.90;;;;;;4969787;28;20089;-70
2023/06/15 03:55:38;;;;;;;0.75;0.75;;;14.10;99.90;;;;;;4953369;28;20383;-70
2023/06/15 03:58:04;;;;;;;1.00;1.00;;;14.10;99.90;;;;;;4952615;28;20046;-70
2023/06/15 04:00:34;;;;;;;1.23;1.02;;;14.20;99.90;;;;;;4970433;28;20042;-70
2023/06/15 04:03:01;;;;;;;1.25;1.13;;;14.20;99.90;;;;;;4970520;28;20047;-70
2023/06/15 04:05:27;;;;;;;5.65;1.30;;;14.20;99.90;;;;;;4952055;28;20082;-70
2023/06/15 04:07:54;;;;;;;1.17;0.57;;;14.20;99.90;;;;;;4937262;28;20062;-70
2023/06/15 04:10:20;;;;;;;1.40;1.00;;;14.20;99.90;;;;;;4951718;28;20046;-70
2023/06/15 04:12:47;;;;;;;1.00;1.00;;;14.20;99.90;;;;;;4953473;28;20114;-70
2023/06/15 04:15:13;;;;;;;1.55;1.13;;;14.30;99.90;;;;;;4952244;28;20051;-70
2023/06/15 04:17:40;;;;;;;1.13;1.02;;;14.30;99.90;;;;;;4952610;28;20536;-70
2023/06/15 04:20:08;;;;;;;1.58;0.98;;;14.30;99.90;;;;;;4970108;28;20125;-70
2023/06/15 04:22:35;;;;;;;1.25;1.08;;;14.40;99.90;;;;;;4951882;28;20047;-70
2023/06/15 04:25:01;;;;;;;1.48;1.33;;;14.40;99.90;;;;;;4953307;28;20050;-70
2023/06/15 04:27:28;;;;;;;0.90;0.90;;;14.40;99.90;;;;;;4968351;28;20061;-70
2023/06/15 04:29:54;;;;;;;1.25;1.00;;;14.50;99.90;;;;;;4951818;28;20500;-70
2023/06/15 04:32:25;;;;;;;2.35;1.00;;;14.50;99.90;;;;;;4968835;28;20055;-70
2023/06/15 04:34:54;;;;;;;2.50;1.33;;;14.60;99.90;;;;;;4953286;28;20051;-70
2023/06/15 04:37:20;;;;;;;1.38;1.27;;;14.60;99.90;;;;;;4952463;28;20387;-69
2023/06/15 04:39:47;;;;;;;0.95;0.95;;;14.70;99.90;;;;;;4951620;28;20051;-70
2023/06/15 04:42:13;;;;;;;0.98;0.98;;;14.80;99.90;;;;;;4953532;28;20042;-70
2023/06/15 04:44:40;;;;;;;1.02;1.02;;;14.80;99.90;;;;;;4934969;28;20071;-70
2023/06/15 04:47:07;;;;;;;0.98;0.93;;;14.90;99.90;;;;;;4953166;28;20482;-70
2023/06/15 04:49:33;;;;;;;1.27;1.10;;;15.00;99.80;;;;;;4951072;28;20098;-70
2023/06/15 04:52:02;;;;;;;1.10;1.00;;;15.10;99.20;;;;;;4968893;28;20504;-70
2023/06/15 04:54:29;;;;;;;2.25;1.52;;;15.20;99.00;;;;;;4950964;28;20134;-70
2023/06/15 04:56:57;;;;;;;4.18;1.13;;;15.30;99.60;;;;;;4952531;28;20055;-69
2023/06/15 04:59:23;;;;;;;1.20;1.20;;;15.40;99.90;;;;;;4952102;28;20047;-69
2023/06/15 05:01:49;;;;;;;2.10;1.20;;;15.40;99.90;;;;;;4968197;28;20058;-70
2023/06/15 05:04:16;;;;;;;1.50;1.40;;;15.50;99.80;;;;;;4951662;28;20046;-70
2023/06/15 05:06:43;;;;;;;1.15;1.10;;;15.60;98.50;;;;;;4918924;28;20089;-70
2023/06/15 05:09:10;;;;;;;1.95;1.30;;;15.80;96.80;;;;;;4952739;28;20544;-70
2023/06/15 05:11:36;;;;;;;1.90;1.13;;;16.00;95.70;;;;;;4950882;28;20061;-70
2023/06/15 05:14:04;;;;;;;1.10;1.10;;;16.20;93.50;;;;;;4952287;28;20113;-70
2023/06/15 05:16:30;;;;;;;3.00;1.02;;;16.40;92.10;;;;;;4968738;28;20417;-69
2023/06/15 05:18:57;;;;;;;0.95;0.95;;;16.50;90.40;;;;;;4951463;28;20039;-70
2023/06/15 05:21:24;;;;;;;3.42;1.23;;;16.50;87.40;;;;;;4952558;28;20089;-70
2023/06/15 05:23:53;;;;;;;;;;;16.60;86.90;;;;;;4968016;28;20098;-70
2023/06/15 05:26:20;;;;;;;1.40;1.30;;;16.70;84.30;;;;;;4952142;28;19984;-70
2023/06/15 05:28:46;;;;;;;1.00;1.00;;;16.70;84.40;;;;;;4934531;28;20051;-69
2023/06/15 05:31:13;;;;;;;2.83;1.02;;;16.80;87.60;;;;;;4951685;28;20047;-70
2023/06/15 05:33:40;;;;;;;2.67;1.00;;;16.80;87.80;;;;;;4968467;28;20110;-69
2023/06/15 05:36:06;;;;;;;1.42;1.20;;;16.90;87.00;;;;;;4951500;28;20512;-70
2023/06/15 05:38:33;;;;;;;2.97;1.23;;;17.00;87.40;;;;;;4951497;28;20046;-69
2023/06/15 05:40:59;;;;;;;1.13;1.13;;;17.10;86.40;;;;;;4950305;28;20397;-69
2023/06/15 05:43:26;;;;;;;1.38;1.13;;;17.10;88.80;;;;;;4968929;28;20039;-69
2023/06/15 05:45:52;;;;;;;2.10;1.27;;;17.20;88.30;;;;;;4947994;28;20056;-70
2023/06/15 05:48:19;;;;;;;3.58;1.27;;;17.30;81.40;;;;;;4951739;28;20478;-69
2023/06/15 05:50:46;;;;;;;1.30;1.02;;;17.30;77.70;;;;;;4950157;28;20454;-69
2023/06/15 05:53:13;;;;;;;1.20;1.10;;;17.30;77.20;;;;;;4951179;28;20042;-70
2023/06/15 05:55:39;;;;;;;3.45;1.42;;;17.40;78.80;;;;;;4966726;28;20054;-70
2023/06/15 05:58:06;;;;;;;1.33;1.30;;;17.40;74.10;;;;;;4953385;28;20043;-69
2023/06/15 06:00:34;;;;;;;1.30;1.20;;;17.60;71.80;;;;;;4935651;28;20058;-70
2023/06/15 06:03:01;;;;;;;1.13;1.02;;;17.60;66.80;;;;;;4944608;28;20050;-69
2023/06/15 06:05:27;;;;;;;1.23;0.93;;;17.60;63.30;;;;;;4951422;28;20065;-70
2023/06/15 06:07:54;;;;;;;1.40;1.30;;;17.80;64.00;;;;;;4961060;28;20047;-70
2023/06/15 06:10:21;;;;;;;1.30;1.05;;;17.80;65.40;;;;;;4955269;28;20101;-69
2023/06/15 06:12:48;;;;;;;1.60;1.30;;;17.90;66.40;;;;;;4950072;28;20558;-70
2023/06/15 06:15:15;;;;;;;1.83;1.40;;;17.90;62.60;;;;;;4934593;28;20149;-70
2023/06/15 06:17:42;;;;;;;1.35;1.25;;;18.00;66.40;;;;;;4951213;28;20047;-69
2023/06/15 06:20:09;;;;;;;2.78;1.20;;;18.10;65.70;;;;;;4950163;28;20425;-70
2023/06/15 06:22:35;;;;;;;1.30;1.20;;;18.10;60.20;;;;;;4950782;28;20069;-70
2023/06/15 06:25:03;;;;;;;3.13;1.00;;;18.10;54.60;;;;;;4966721;28;20490;-69
2023/06/15 06:27:30;;;;;;;2.95;1.00;;;18.10;59.10;;;;;;4951551;28;20119;-69
2023/06/15 06:29:58;;;;;;;1.27;0.90;;;18.20;49.00;;;;;;4950209;28;20430;-70
2023/06/15 06:32:24;;;;;;;1.13;1.00;;;18.20;20.40;;;;;;4955086;28;20050;-70
2023/06/15 06:34:51;;;;;;;1.10;1.00;;;18.30;16.50;;;;;;4954808;28;20056;-69
2023/06/15 06:37:17;;;;;;;0.82;0.77;;;18.30;20.10;;;;;;4936692;28;20058;-69
2023/06/15 06:39:43;;;;;;;1.08;0.98;;;18.40;13.30;;;;;;4935695;28;20130;-69
2023/06/15 06:42:10;;;;;;;0.98;0.98;;;18.40;15.70;;;;;;4950971;28;20050;-69
2023/06/15 06:44:36;;;;;;;1.58;0.82;;;18.50;24.50;;;;;;4936307;28;20082;-69
2023/06/15 06:47:03;;;;;;;1.10;1.00;;;18.50;27.60;;;;;;4951638;28;20198;-69
2023/06/15 06:49:30;;;;;;;1.17;1.08;;;18.60;9.90;;;;;;4951249;28;20058;-69
2023/06/15 06:51:56;;;;;;;0.77;0.73;;;18.60;6.30;;;;;;4952605;28;20059;-69
2023/06/15 06:54:23;;;;;;;0.70;0.70;;;18.70;4.90;;;;;;4949325;28;20050;-69
2023/06/15 06:56:49;;;;;;;0.82;0.82;;;18.80;7.10;;;;;;4951457;28;20137;-69
2023/06/15 06:59:17;;;;;;;1.58;1.30;;;18.90;5.80;;;;;;4950019;28;20046;-70
2023/06/15 07:01:43;;;;;;;1.70;0.90;;;18.90;2.90;;;;;;4934840;28;20060;-69
2023/06/15 07:04:10;;;;;;;0.95;0.95;;;18.90;2.60;;;;;;4951223;28;20042;-69
2023/06/15 07:06:36;;;;;;;1.85;1.02;;;18.90;1.00;;;;;;4951358;28;20054;-69
2023/06/15 07:09:03;;;;;;;1.23;1.13;;;19.00;5.50;;;;;;4935640;28;20076;-69
2023/06/15 07:11:29;;;;;;;0.93;0.93;;;19.00;5.30;;;;;;4967064;28;20458;-70
2023/06/15 07:13:56;;;;;;;1.02;0.73;;;19.00;8.20;;;;;;4968034;28;20046;-68
2023/06/15 07:16:22;;;;;;;1.38;1.27;;;19.10;7.70;;;;;;4966406;28;20274;-69
2023/06/15 07:18:49;;;;;;;1.60;1.17;;;19.20;11.50;;;;;;4952984;28;20057;-69
2023/06/15 07:21:15;;;;;;;1.10;1.10;;;19.30;7.10;;;;;;4953197;28;20062;-70
2023/06/15 07:23:42;;;;;;;1.60;1.23;;;19.40;8.50;;;;;;4952836;28;20059;-69
2023/06/15 07:26:08;;;;;;;1.75;1.20;;;19.50;1.00;;;;;;4953339;28;20048;-69
2023/06/15 07:28:35;;;;;;;1.02;1.02;;;19.60;3.60;;;;;;4953375;28;20568;-69
2023/06/15 07:31:02;;;;;;;1.38;1.27;;;19.70;6.00;;;;;;4970944;28;20042;-69
2023/06/15 07:33:29;;;;;;;5.63;1.60;;;19.90;11.00;;;;;;4952629;28;20089;-69
2023/06/15 07:35:56;;;;;;;1.33;1.23;;;20.00;1.00;;;;;;4937945;28;20057;-69
2023/06/15 07:38:22;;;;;;;1.30;1.20;;;20.20;6.60;;;;;;4936943;28;20078;-69
2023/06/15 07:40:49;;;;;;;1.13;1.13;;;20.40;3.70;;;;;;4953977;28;20131;-69
2023/06/15 07:43:16;;;;;;;1.40;1.30;;;20.70;3.60;;;;;;4952890;28;20058;-69
2023/06/15 07:45:44;;;;;;;1.10;1.10;;;20.90;1.00;;;;;;4961673;28;20061;-69
2023/06/15 07:48:12;;;;;;;1.30;0.90;;;21.20;1.00;;;;;;4957227;28;20094;-69
2023/06/15 07:50:38;;;;;;;1.70;1.30;;;21.50;1.00;;;;;;4962606;28;20408;-69
2023/06/15 07:53:05;;;;;;;2.22;1.25;;;21.90;1.00;;;;;;4982731;28;20062;-69
2023/06/15 07:55:32;;;;;;;1.40;1.30;;;22.20;1.00;;;;;;4942398;29;20054;-69
2023/06/15 07:57:58;;;;;;;3.08;1.55;;;22.50;1.00;;;;;;4970956;28;20110;-69
2023/06/15 08:00:25;;;;;;;1.77;1.40;;;22.80;1.00;;;;;;4961841;28;20053;-69
2023/06/15 08:02:51;;;;;;;1.40;1.30;;;22.90;1.00;;;;;;4937588;28;20050;-69
2023/06/15 08:05:17;;;;;;;1.30;1.23;;;23.10;1.00;;;;;;4946593;28;20047;-69
2023/06/15 08:07:44;;;;;;;2.28;1.52;;;23.30;1.00;;;;;;4957436;28;20177;-68
2023/06/15 08:10:11;;;;;;;1.45;1.35;;;23.60;1.00;;;;;;4941575;28;20083;-69
2023/06/15 08:12:37;;;;;;;2.55;1.30;;;23.70;1.00;;;;;;4965986;28;20394;-69
2023/06/15 08:15:05;;;;;;;1.40;1.30;;;23.80;1.00;;;;;;4970585;28;20464;-68
2023/06/15 08:17:31;;;;;;;1.85;1.40;;;23.90;1.00;;;;;;4985200;28;20049;-70
2023/06/15 08:19:57;;;;;;;1.38;1.27;;;24.10;1.00;;;;;;4964074;28;20050;-69
2023/06/15 08:22:24;;;;;;;1.45;1.15;;;24.20;1.00;;;;;;4954489;28;20133;-69
2023/06/15 08:24:51;;;;;;;1.38;1.27;;;24.30;1.00;;;;;;4978070;28;20050;-69
2023/06/15 08:27:17;;;;;;;1.85;1.40;;;24.30;1.00;;;;;;4971361;28;20043;-70
2023/06/15 08:29:44;;;;;;;2.45;1.30;;;24.30;1.00;;;;;;4965488;28;20097;-69
2023/06/15 08:32:13;;;;;;;1.35;1.25;;;24.50;1.00;;;;;;4979900;28;20055;-69
2023/06/15 08:34:41;;;;;;;;;;;24.40;1.00;;;;;;4957077;28;20065;-69
2023/06/15 08:37:09;;;;;;;0.98;0.98;;;24.50;1.00;;;;;;4957276;28;19930;-69
2023/06/15 08:39:35;;;;;;;3.10;1.17;;;24.60;1.00;;;;;;4964910;28;20081;-69
2023/06/15 08:42:03;;;;;;;2.95;1.02;;;24.80;1.00;;;;;;4962018;28;20113;-69
2023/06/15 08:44:34;;;;;;;1.92;1.13;;;24.90;1.00;;;;;;4970795;28;20056;-69
2023/06/15 08:47:04;;;;;;;1.27;1.17;;;24.90;1.00;;;;;;4940171;28;20124;-69
2023/06/15 08:49:31;;;;;;;3.72;1.00;;;24.90;1.00;;;;;;4981629;28;20052;-69
2023/06/15 08:51:59;;;;;;;1.60;1.08;;;24.90;1.00;;;;;;4957022;28;20042;-69
2023/06/15 08:54:27;;;;;;;2.80;1.15;;;24.80;1.00;;;;;;4959197;28;20054;-69
2023/06/15 08:56:55;;;;;;;0.88;0.88;;;24.90;1.00;;;;;;4968230;28;20058;-68
2023/06/15 08:59:22;;;;;;;1.27;0.90;;;25.00;1.00;;;;;;4960098;28;20074;-69
2023/06/15 09:01:48;;;;;;;1.05;0.75;;;25.10;1.00;;;;;;4972005;28;20054;-69
2023/06/15 09:04:17;;;;;;;1.40;1.08;;;25.40;1.00;;;;;;4972628;28;20062;-69
2023/06/15 09:06:44;;;;;;;0.82;0.82;;;25.40;1.00;;;;;;4959948;28;20046;-69
2023/06/15 09:09:12;;;;;;;1.13;0.90;;;25.50;1.00;;;;;;4983645;28;20042;-69
2023/06/15 09:11:46;;;;;;;3.35;0.90;;;25.60;1.00;;;;;;4952431;28;20094;-69
2023/06/15 09:14:13;;;;;;;0.80;0.80;;;25.50;1.00;;;;;;4951807;28;20050;-69
2023/06/15 09:16:41;;;;;;;0.80;0.80;;;25.60;1.00;;;;;;4967439;28;20113;-68
2023/06/15 09:19:13;;;;;;;0.90;0.90;;;25.80;1.00;;;;;;4951729;28;20053;-69
2023/06/15 09:21:51;;;;;;;1.17;0.80;;;25.90;1.00;;;;;;4950578;28;20560;-69
2023/06/15 09:24:22;;;;;;;0.80;0.70;;;26.00;1.00;;;;;;4987058;28;20064;-69
2023/06/15 09:26:48;;;;;;;0.90;0.90;;;26.00;1.00;;;;;;4986629;28;20183;-69
2023/06/15 09:29:14;;;;;;;1.08;1.00;;;25.90;1.00;;;;;;4970703;28;20054;-70
2023/06/15 09:31:41;;;;;;;1.05;0.88;;;25.50;1.00;;;;;;4971226;28;20047;-69
2023/06/15 09:34:11;;;;;;;1.60;1.08;;;25.40;1.00;;;;;;4986789;28;20089;-69
2023/06/15 09:36:49;;;;;;;0.90;0.88;;;25.30;1.00;;;;;;4988695;28;20531;-70
2023/06/15 09:39:22;;;;;;;1.00;0.90;;;25.40;1.00;;;;;;4969806;28;20126;-69
2023/06/15 09:42:02;;;;;;;1.00;1.00;;;25.40;1.00;;;;;;4988335;28;20057;-70
2023/06/15 09:44:29;;;;;;;1.00;0.90;;;25.20;1.00;;;;;;4971614;28;20054;-70
2023/06/15 09:47:01;;;;;;;1.20;1.10;;;25.20;1.00;;;;;;4974884;28;20440;-69
2023/06/15 09:49:28;;;;;;;1.83;0.90;;;25.20;1.00;;;;;;4985437;28;20112;-70
2023/06/15 09:51:55;;;;;;;1.92;0.93;;;25.20;1.00;;;;;;4987538;28;20484;-69
2023/06/15 09:54:23;;;;;;;1.00;0.73;;;25.20;1.00;;;;;;4987690;28;20041;-69
2023/06/15 09:56:52;;;;;;;1.23;1.05;;;25.10;1.00;;;;;;4969377;28;20392;-69
2023/06/15 09:59:19;;;;;;;0.85;0.70;;;25.10;1.00;;;;;;4990178;28;20058;-69
2023/06/15 10:01:48;;;;;;;0.90;0.90;;;25.20;1.00;;;;;;4977227;28;20057;-69
2023/06/15 10:04:21;;;;;;;0.80;0.80;;;25.20;1.00;;;;;;4968958;28;20065;-69
2023/06/15 10:06:55;;;;;;;1.10;1.00;;;25.30;1.00;;;;;;4970477;28;20113;-69
2023/06/15 10:09:29;;;;;;;1.17;1.13;;;25.40;1.00;;;;;;4966554;28;20104;-69
2023/06/15 10:12:15;;;;;;;3.60;1.00;;;25.50;1.00;;;;;;4970944;28;20427;-69
2023/06/15 10:15:07;;;;;;;1.23;1.00;;;25.50;1.00;;;;;;4970734;28;20121;-69
2023/06/15 10:17:52;;;;;;;;;;;25.40;1.00;;;;;;4968481;28;20132;-69
2023/06/15 10:20:21;;;;;;;;;;;25.30;1.00;;;;;;4988521;28;19929;-69
2023/06/15 10:23:05;;;;;;;0.73;0.73;;;25.20;1.00;;;;;;4997911;28;19926;-69
2023/06/15 10:25:36;;;;;;;0.73;0.73;;;25.10;1.00;;;;;;4992919;28;20046;-69
2023/06/15 10:28:09;;;;;;;2.10;0.95;;;25.10;1.00;;;;;;4979112;28;20053;-68
2023/06/15 10:30:46;;;;;;;3.10;0.80;;;25.20;1.00;;;;;;4987459;28;20536;-69
2023/06/15 10:33:36;;;;;;;5.10;1.00;;;25.20;1.00;;;;;;4989909;28;20512;-69
2023/06/15 10:36:25;;;;;;;4.50;0.70;;;25.10;1.00;;;;;;4965985;28;20056;-69
2023/06/15 10:39:13;;;;;;;1.88;1.13;;;25.10;1.00;;;;;;4976655;28;20476;-69
2023/06/15 10:41:39;;;;;;;0.70;0.70;;;25.10;1.00;;;;;;4998082;28;20555;-68
2023/06/15 10:44:06;;;;;;;1.90;0.95;;;25.00;1.00;;;;;;4993587;28;20050;-68
2023/06/15 10:46:36;;;;;;;0.90;0.90;;;25.10;1.00;;;;;;4980636;28;20157;-68
2023/06/15 10:49:08;;;;;;;3.35;1.00;;;25.20;1.00;;;;;;4984619;28;20058;-69
2023/06/15 10:51:35;;;;;;;0.95;0.95;;;25.10;1.00;;;;;;4971766;28;20448;-69
2023/06/15 10:54:03;;;;;;;1.10;1.00;;;25.10;1.00;;;;;;4995071;28;20129;-69
2023/06/15 10:56:31;;;;;;;1.40;1.10;;;25.10;1.00;;;;;;4976525;28;20070;-69
2023/06/15 10:59:08;;;;;;;1.40;1.30;;;25.00;1.00;;;;;;4977026;28;20089;-69
2023/06/15 11:01:34;;;;;;;0.88;0.88;;;24.60;1.00;;;;;;4994694;28;20184;-69
2023/06/15 11:04:23;;;;;;;0.75;0.75;;;24.40;1.00;;;;;;4977534;28;20057;-68
2023/06/15 11:06:57;;;;;;;1.30;1.30;;;24.40;1.00;;;;;;4964412;28;20050;-69
2023/06/15 11:09:28;;;;;;;3.92;1.35;;;24.40;1.00;;;;;;4989705;28;20458;-68
2023/06/15 11:11:56;;;;;;;2.78;1.00;;;24.40;1.00;;;;;;4974072;28;20536;-68
2023/06/15 11:14:23;;;;;;;1.00;0.90;;;24.10;1.00;;;;;;4972069;28;20501;-69
2023/06/15 11:17:05;;;;;;;1.33;0.85;;;24.00;1.00;;;;;;4991122;28;20041;-69
2023/06/15 11:19:40;;;;;;;1.08;0.95;;;23.80;1.00;;;;;;4969885;28;20158;-69
2023/06/15 11:22:07;;;;;;;1.10;0.90;;;23.80;1.00;;;;;;4968827;28;20061;-68
2023/06/15 11:24:36;;;;;;;1.35;1.00;;;23.70;1.00;;;;;;4952224;28;20165;-69
2023/06/15 11:27:04;;;;;;;1.00;0.85;;;23.50;1.00;;;;;;4975430;28;20039;-69
2023/06/15 11:29:35;;;;;;;1.08;1.00;;;23.60;1.00;;;;;;4985400;28;20085;-69
2023/06/15 11:32:03;;;;;;;1.52;1.00;;;23.70;1.00;;;;;;4966391;28;20494;-68
2023/06/15 11:34:31;;;;;;;0.80;0.80;;;23.60;1.00;;;;;;4967051;28;20057;-69
2023/06/15 11:36:58;;;;;;;0.83;0.83;;;23.60;1.00;;;;;;5007066;28;20042;-69
2023/06/15 11:39:27;;;;;;;1.55;0.98;;;23.60;1.00;;;;;;4991442;28;20038;-69
2023/06/15 11:41:54;;;;;;;1.05;0.98;;;23.60;1.00;;;;;;4977849;28;20542;-69
2023/06/15 11:44:23;;;;;;;1.27;1.10;;;23.60;1.00;;;;;;4979496;28;20092;-68
2023/06/15 11:47:01;;;;;;;1.05;1.00;;;23.60;1.00;;;;;;4965410;28;20485;-68
2023/06/15 11:49:37;;;;;;;1.20;0.90;;;23.50;1.00;;;;;;4976043;28;20445;-68
2023/06/15 11:52:04;;;;;;;1.48;0.95;;;23.50;1.00;;;;;;4977873;28;20515;-69
2023/06/15 11:54:31;;;;;;;1.08;1.00;;;23.40;1.00;;;;;;5002759;28;20060;-68
2023/06/15 11:56:57;;;;;;;0.77;0.75;;;23.50;1.00;;;;;;4990106;28;20046;-69
2023/06/15 11:59:27;;;;;;;0.85;0.80;;;23.50;1.00;;;;;;4991363;28;20064;-69
2023/06/15 12:02:00;;;;;;;1.13;0.90;;;23.50;1.00;;;;;;4954822;28;20129;-69
2023/06/15 12:04:35;;;;;;;5.05;0.82;;;23.50;1.00;;;;;;4985845;28;20050;-69
2023/06/15 12:07:04;;;;;;;1.65;1.20;;;23.50;1.00;;;;;;4994479;28;20042;-69
2023/06/15 12:09:38;;;;;;;0.75;0.75;;;23.50;1.00;;;;;;4970566;28;20399;-69
2023/06/15 12:12:07;;;;;;;0.77;0.75;;;23.60;1.00;;;;;;4972597;28;20053;-69
2023/06/15 12:14:34;;;;;;;0.82;0.82;;;23.60;1.00;;;;;;4950789;28;20046;-69
2023/06/15 12:17:00;;;;;;;1.20;1.10;;;23.60;1.00;;;;;;4992128;28;20408;-69
2023/06/15 12:19:28;;;;;;;1.05;1.00;;;23.70;1.00;;;;;;4976266;28;20408;-69
2023/06/15 12:21:59;;;;;;;0.70;0.70;;;23.70;1.00;;;;;;4973620;28;20057;-69
2023/06/15 12:24:26;;;;;;;3.05;0.98;;;23.60;1.00;;;;;;4972014;28;20054;-69
2023/06/15 12:26:57;;;;;;;1.10;0.95;;;23.50;1.00;;;;;;4956496;28;20038;-69
2023/06/15 12:29:25;;;;;;;2.25;1.10;;;23.70;1.00;;;;;;4990016;28;20096;-69
2023/06/15 12:31:55;;;;;;;0.90;0.90;;;23.80;1.00;;;;;;4989430;28;20046;-70
2023/06/15 12:34:28;;;;;;;1.20;0.80;;;23.80;1.00;;;;;;4990273;28;20416;-69
2023/06/15 12:36:55;;;;;;;1.05;0.80;;;23.70;1.00;;;;;;4990162;28;20153;-68
2023/06/15 12:39:27;;;;;;;1.10;0.90;;;23.70;1.00;;;;;;4988471;28;20125;-69
2023/06/15 12:42:01;;;;;;;1.52;1.10;;;23.70;1.00;;;;;;4985099;28;20514;-68
2023/06/15 12:44:29;;;;;;;1.80;0.93;;;23.70;1.00;;;;;;4987551;28;20054;-68
2023/06/15 12:46:56;;;;;;;0.95;0.90;;;23.70;1.00;;;;;;4997856;28;20052;-69
2023/06/15 12:49:22;;;;;;;0.93;0.88;;;23.70;1.00;;;;;;4987059;28;20045;-69
2023/06/15 12:51:50;;;;;;;0.63;0.63;;;23.70;1.00;;;;;;4986874;28;20473;-69
2023/06/15 12:54:18;;;;;;;1.10;1.00;;;23.70;1.00;;;;;;4972250;28;20054;-69
2023/06/15 12:56:44;;;;;;;1.10;1.10;;;23.70;1.00;;;;;;4970037;28;20083;-69
2023/06/15 12:59:11;;;;;;;2.00;1.30;;;23.60;1.00;;;;;;4978925;28;20504;-69